ADZ21 UHMA-UHMP
Flight info
| Callsign | ADZ21 |
|---|---|
| Flight time | 1h 51m |
| Altitude | 18000 |
| Route | N0230F180 GERBI W80 ARBOM |
| Aircraft | AN24/M-VGDW/C |
Departure
| Time | 2026-04-26 11:39 |
|---|---|
| Airport | Ugolny Yuri Ryktheu Airport (UHMA) |
Arrival
| Time | 2026-04-26 13:30 |
|---|---|
| Airport | Pevek Airport (UHMP) |
| Time | Latitude | Longitude | Altitude | Speed | Heading |
|---|---|---|---|---|---|
| 2026-04-26 11:19 | 64.71551 | 177.73666 | 151 ft | 0 kts | 270° |
| 2026-04-26 11:33 | 64.71553 | 177.73737 | 151 ft | 8 kts | 75° |
| 2026-04-26 11:33 | 64.71567 | 177.73782 | 151 ft | 0 kts | 41° |
| 2026-04-26 11:33 | 64.71609 | 177.73801 | 151 ft | 10 kts | 339° |
| 2026-04-26 11:34 | 64.71660 | 177.73717 | 151 ft | 6 kts | 320° |
| 2026-04-26 11:34 | 64.71738 | 177.73563 | 151 ft | 18 kts | 321° |
| 2026-04-26 11:34 | 64.71810 | 177.73473 | 151 ft | 6 kts | 335° |
| 2026-04-26 11:34 | 64.71820 | 177.73460 | 151 ft | 0 kts | 335° |
| 2026-04-26 11:35 | 64.71852 | 177.73425 | 151 ft | 13 kts | 335° |
| 2026-04-26 11:35 | 64.71891 | 177.73387 | 151 ft | 5 kts | 337° |
| 2026-04-26 11:36 | 64.71940 | 177.73346 | 151 ft | 7 kts | 357° |
| 2026-04-26 11:36 | 64.71967 | 177.73357 | 151 ft | 7 kts | 6° |
| 2026-04-26 11:36 | 64.71991 | 177.73335 | 151 ft | 0 kts | 317° |
| 2026-04-26 11:36 | 64.72001 | 177.73314 | 151 ft | 5 kts | 318° |
| 2026-04-26 11:37 | 64.72007 | 177.73300 | 151 ft | 0 kts | 319° |
| 2026-04-26 11:37 | 64.72038 | 177.73283 | 151 ft | 3 kts | 17° |
| 2026-04-26 11:37 | 64.72043 | 177.73286 | 151 ft | 0 kts | 16° |
| 2026-04-26 11:37 | 64.72059 | 177.73297 | 151 ft | 17 kts | 15° |
| 2026-04-26 11:38 | 64.72438 | 177.73532 | 151 ft | 89 kts | 15° |
| 2026-04-26 11:38 | 64.73192 | 177.73990 | 182 ft | 129 kts | 17° |
| 2026-04-26 11:38 | 64.74133 | 177.74518 | 324 ft | 149 kts | 15° |
| 2026-04-26 11:38 | 64.75187 | 177.75159 | 524 ft | 165 kts | 15° |
| 2026-04-26 11:39 | 64.76384 | 177.75781 | 623 ft | 186 kts | 13° |
| 2026-04-26 11:39 | 64.77707 | 177.76343 | 783 ft | 201 kts | 12° |
| 2026-04-26 11:39 | 64.79136 | 177.76828 | 973 ft | 210 kts | 10° |
| 2026-04-26 11:39 | 64.80596 | 177.77216 | 1294 ft | 209 kts | 7° |
| 2026-04-26 11:40 | 64.82030 | 177.77373 | 1518 ft | 209 kts | 5° |
| 2026-04-26 11:40 | 64.83498 | 177.77736 | 1669 ft | 211 kts | 11° |
| 2026-04-26 11:40 | 64.84934 | 177.78442 | 1869 ft | 210 kts | 14° |
| 2026-04-26 11:40 | 64.86352 | 177.79170 | 2089 ft | 210 kts | 14° |
| 2026-04-26 11:41 | 64.87771 | 177.79849 | 2311 ft | 209 kts | 10° |
| 2026-04-26 11:42 | 64.91058 | 177.59148 | 3849 ft | 213 kts | 275° |
| 2026-04-26 11:43 | 64.91132 | 177.55675 | 4124 ft | 210 kts | 280° |
| 2026-04-26 11:43 | 64.91702 | 177.52629 | 4345 ft | 204 kts | 316° |
| 2026-04-26 11:43 | 64.92866 | 177.50813 | 4592 ft | 199 kts | 336° |
| 2026-04-26 11:43 | 64.94098 | 177.49359 | 4859 ft | 197 kts | 336° |
| 2026-04-26 11:44 | 64.95309 | 177.47887 | 5109 ft | 197 kts | 335° |
| 2026-04-26 11:44 | 64.96516 | 177.46364 | 5354 ft | 197 kts | 334° |
| 2026-04-26 11:44 | 64.97714 | 177.44800 | 5592 ft | 197 kts | 333° |
| 2026-04-26 11:44 | 64.98907 | 177.43185 | 5817 ft | 198 kts | 333° |
| 2026-04-26 11:45 | 65.00087 | 177.41538 | 6039 ft | 199 kts | 332° |
| 2026-04-26 11:45 | 65.01269 | 177.39830 | 6276 ft | 200 kts | 331° |
| 2026-04-26 11:45 | 65.02451 | 177.38065 | 6511 ft | 200 kts | 330° |
| 2026-04-26 11:45 | 65.03614 | 177.36246 | 6745 ft | 201 kts | 327° |
| 2026-04-26 11:46 | 65.04689 | 177.34164 | 6987 ft | 202 kts | 319° |
| 2026-04-26 11:46 | 65.05739 | 177.31992 | 7209 ft | 201 kts | 324° |
| 2026-04-26 11:46 | 65.06902 | 177.30190 | 7439 ft | 200 kts | 336° |
| 2026-04-26 11:46 | 65.08202 | 177.29042 | 7674 ft | 198 kts | 345° |
| 2026-04-26 11:47 | 65.09511 | 177.28087 | 7895 ft | 198 kts | 344° |
| 2026-04-26 11:47 | 65.10826 | 177.27054 | 8110 ft | 200 kts | 343° |
| 2026-04-26 11:47 | 65.12150 | 177.25958 | 8291 ft | 202 kts | 342° |
| 2026-04-26 11:47 | 65.13476 | 177.24802 | 8477 ft | 205 kts | 341° |
| 2026-04-26 11:48 | 65.14780 | 177.23439 | 8685 ft | 206 kts | 339° |
| 2026-04-26 11:48 | 65.16103 | 177.22089 | 8893 ft | 207 kts | 339° |
| 2026-04-26 11:48 | 65.17420 | 177.20717 | 9097 ft | 208 kts | 338° |
| 2026-04-26 11:48 | 65.18726 | 177.19312 | 9303 ft | 209 kts | 338° |
| 2026-04-26 11:49 | 65.20040 | 177.17856 | 9513 ft | 209 kts | 337° |
| 2026-04-26 11:49 | 65.21350 | 177.16359 | 9723 ft | 210 kts | 336° |
| 2026-04-26 11:49 | 65.22669 | 177.14809 | 9936 ft | 210 kts | 335° |
| 2026-04-26 11:49 | 65.23959 | 177.13248 | 10145 ft | 210 kts | 335° |
| 2026-04-26 11:50 | 65.25256 | 177.11636 | 10356 ft | 211 kts | 334° |
| 2026-04-26 11:50 | 65.26559 | 177.09972 | 10568 ft | 211 kts | 333° |
| 2026-04-26 11:50 | 65.27841 | 177.08292 | 10776 ft | 211 kts | 333° |
| 2026-04-26 11:50 | 65.29111 | 177.06586 | 10982 ft | 211 kts | 332° |
| 2026-04-26 11:51 | 65.30387 | 177.04826 | 11189 ft | 212 kts | 332° |
| 2026-04-26 11:51 | 65.31657 | 177.03033 | 11396 ft | 212 kts | 331° |
| 2026-04-26 11:51 | 65.32914 | 177.01216 | 11599 ft | 212 kts | 330° |
| 2026-04-26 11:51 | 65.34164 | 176.99364 | 11815 ft | 212 kts | 329° |
| 2026-04-26 11:52 | 65.35406 | 176.97482 | 12067 ft | 210 kts | 329° |
| 2026-04-26 11:52 | 65.36213 | 176.96234 | 12223 ft | 209 kts | 328° |
| 2026-04-26 11:52 | 65.37837 | 176.93814 | 12528 ft | 206 kts | 334° |
| 2026-04-26 11:52 | 65.39136 | 176.92351 | 12753 ft | 204 kts | 339° |
| 2026-04-26 11:53 | 65.40452 | 176.91067 | 12946 ft | 204 kts | 339° |
| 2026-04-26 11:53 | 65.41762 | 176.89760 | 13130 ft | 205 kts | 339° |
| 2026-04-26 11:53 | 65.43056 | 176.88429 | 13310 ft | 205 kts | 338° |
| 2026-04-26 11:54 | 65.45678 | 176.85646 | 13671 ft | 205 kts | 338° |
| 2026-04-26 11:54 | 65.46962 | 176.84270 | 13844 ft | 205 kts | 338° |
| 2026-04-26 11:54 | 65.48265 | 176.82871 | 14015 ft | 205 kts | 338° |
| 2026-04-26 11:54 | 65.49567 | 176.81468 | 14182 ft | 205 kts | 338° |
| 2026-04-26 11:55 | 65.50878 | 176.80054 | 14347 ft | 205 kts | 338° |
| 2026-04-26 11:55 | 65.52169 | 176.78657 | 14506 ft | 205 kts | 338° |
| 2026-04-26 11:55 | 65.53482 | 176.77234 | 14664 ft | 205 kts | 338° |
| 2026-04-26 11:55 | 65.54787 | 176.75815 | 14817 ft | 205 kts | 338° |
| 2026-04-26 11:56 | 65.56071 | 176.74416 | 14973 ft | 205 kts | 338° |
| 2026-04-26 11:56 | 65.57378 | 176.72983 | 15177 ft | 202 kts | 338° |
| 2026-04-26 11:56 | 65.58648 | 176.71588 | 15354 ft | 200 kts | 338° |
| 2026-04-26 11:56 | 65.59907 | 176.70198 | 15514 ft | 199 kts | 338° |
| 2026-04-26 11:57 | 65.61170 | 176.68800 | 15665 ft | 199 kts | 338° |
| 2026-04-26 11:57 | 65.62409 | 176.67427 | 15806 ft | 199 kts | 338° |
| 2026-04-26 11:57 | 65.63670 | 176.66025 | 15945 ft | 199 kts | 338° |
| 2026-04-26 11:57 | 65.64934 | 176.64616 | 16080 ft | 199 kts | 338° |
| 2026-04-26 11:58 | 65.66177 | 176.63229 | 16209 ft | 199 kts | 338° |
| 2026-04-26 11:58 | 65.67432 | 176.61826 | 16315 ft | 201 kts | 338° |
| 2026-04-26 11:58 | 65.68716 | 176.60388 | 16417 ft | 202 kts | 338° |
| 2026-04-26 11:58 | 65.69991 | 176.58960 | 16527 ft | 203 kts | 338° |
| 2026-04-26 11:59 | 65.71275 | 176.57520 | 16641 ft | 204 kts | 338° |
| 2026-04-26 11:59 | 65.72551 | 176.56087 | 16755 ft | 204 kts | 338° |
| 2026-04-26 11:59 | 65.73838 | 176.54639 | 16869 ft | 204 kts | 338° |
| 2026-04-26 11:59 | 65.75123 | 176.53189 | 16983 ft | 205 kts | 338° |
| 2026-04-26 12:00 | 65.76414 | 176.51732 | 17096 ft | 205 kts | 338° |
| 2026-04-26 12:00 | 65.77705 | 176.50272 | 17208 ft | 205 kts | 338° |
| 2026-04-26 12:00 | 65.79024 | 176.48781 | 17270 ft | 209 kts | 338° |
| 2026-04-26 12:00 | 65.80341 | 176.47293 | 17312 ft | 213 kts | 338° |
| 2026-04-26 12:01 | 65.81683 | 176.45776 | 17377 ft | 215 kts | 338° |
| 2026-04-26 12:01 | 65.83054 | 176.44229 | 17459 ft | 217 kts | 338° |
| 2026-04-26 12:01 | 65.84412 | 176.42693 | 17549 ft | 218 kts | 338° |
| 2026-04-26 12:01 | 65.85790 | 176.41133 | 17646 ft | 218 kts | 338° |
| 2026-04-26 12:02 | 65.87167 | 176.39575 | 17746 ft | 219 kts | 338° |
| 2026-04-26 12:02 | 65.88098 | 176.38518 | 17815 ft | 219 kts | 338° |
| 2026-04-26 12:02 | 65.89940 | 176.36427 | 17950 ft | 220 kts | 338° |
| 2026-04-26 12:02 | 65.91330 | 176.34848 | 17952 ft | 226 kts | 338° |
| 2026-04-26 12:03 | 65.92773 | 176.33202 | 17942 ft | 231 kts | 337° |
| 2026-04-26 12:03 | 65.94223 | 176.31526 | 17906 ft | 234 kts | 337° |
| 2026-04-26 12:03 | 65.95692 | 176.29810 | 17904 ft | 234 kts | 336° |
| 2026-04-26 12:03 | 65.97150 | 176.28021 | 17909 ft | 234 kts | 335° |
| 2026-04-26 12:04 | 65.98599 | 176.26189 | 17911 ft | 234 kts | 335° |
| 2026-04-26 12:04 | 66.00039 | 176.24327 | 17906 ft | 235 kts | 334° |
| 2026-04-26 12:04 | 66.01490 | 176.22409 | 17910 ft | 235 kts | 334° |
| 2026-04-26 12:04 | 66.02923 | 176.20474 | 17913 ft | 235 kts | 333° |
| 2026-04-26 12:05 | 66.04343 | 176.18515 | 17907 ft | 235 kts | 333° |
| 2026-04-26 12:05 | 66.05754 | 176.16527 | 17911 ft | 235 kts | 332° |
| 2026-04-26 12:05 | 66.07168 | 176.14494 | 17910 ft | 235 kts | 332° |
| 2026-04-26 12:05 | 66.08569 | 176.12436 | 17905 ft | 236 kts | 332° |
| 2026-04-26 12:06 | 66.09961 | 176.10345 | 17911 ft | 236 kts | 331° |
| 2026-04-26 12:06 | 66.11364 | 176.08211 | 17859 ft | 238 kts | 331° |
| 2026-04-26 12:06 | 66.12777 | 176.06061 | 17907 ft | 236 kts | 331° |
| 2026-04-26 12:06 | 66.14176 | 176.03937 | 17916 ft | 236 kts | 331° |
| 2026-04-26 12:07 | 66.15556 | 176.01846 | 17913 ft | 236 kts | 331° |
| 2026-04-26 12:07 | 66.16958 | 175.99730 | 17906 ft | 237 kts | 331° |
| 2026-04-26 12:07 | 66.18375 | 175.97594 | 17909 ft | 237 kts | 331° |
| 2026-04-26 12:07 | 66.19766 | 175.95502 | 17913 ft | 237 kts | 331° |
| 2026-04-26 12:08 | 66.21202 | 175.93483 | 17915 ft | 236 kts | 336° |
| 2026-04-26 12:08 | 66.22683 | 175.91740 | 17899 ft | 237 kts | 337° |
| 2026-04-26 12:08 | 66.24173 | 175.89995 | 17908 ft | 236 kts | 337° |
| 2026-04-26 12:08 | 66.25655 | 175.88235 | 17907 ft | 236 kts | 337° |
| 2026-04-26 12:09 | 66.27135 | 175.86472 | 17910 ft | 236 kts | 337° |
| 2026-04-26 12:09 | 66.28617 | 175.84706 | 17911 ft | 236 kts | 337° |
| 2026-04-26 12:09 | 66.30096 | 175.82944 | 17906 ft | 237 kts | 337° |
| 2026-04-26 12:09 | 66.31575 | 175.81184 | 17908 ft | 237 kts | 338° |
| 2026-04-26 12:10 | 66.33076 | 175.79445 | 17908 ft | 237 kts | 337° |
| 2026-04-26 12:10 | 66.34565 | 175.77686 | 17913 ft | 237 kts | 337° |
| 2026-04-26 12:10 | 66.36049 | 175.75906 | 17908 ft | 237 kts | 337° |
| 2026-04-26 12:10 | 66.37522 | 175.74135 | 17908 ft | 237 kts | 337° |
| 2026-04-26 12:11 | 66.39011 | 175.72345 | 17911 ft | 237 kts | 337° |
| 2026-04-26 12:11 | 66.40504 | 175.70550 | 17906 ft | 238 kts | 337° |
| 2026-04-26 12:11 | 66.41975 | 175.68782 | 17911 ft | 237 kts | 337° |
| 2026-04-26 12:11 | 66.43474 | 175.66977 | 17912 ft | 237 kts | 337° |
| 2026-04-26 12:12 | 66.44960 | 175.65186 | 17906 ft | 238 kts | 337° |
| 2026-04-26 12:12 | 66.46434 | 175.63405 | 17911 ft | 238 kts | 337° |
| 2026-04-26 12:12 | 66.47921 | 175.61609 | 17908 ft | 238 kts | 337° |
| 2026-04-26 12:12 | 66.48922 | 175.60399 | 17909 ft | 238 kts | 337° |
| 2026-04-26 12:13 | 66.50895 | 175.58011 | 17912 ft | 238 kts | 337° |
| 2026-04-26 12:13 | 66.52382 | 175.56210 | 17908 ft | 238 kts | 337° |
| 2026-04-26 12:13 | 66.53890 | 175.54381 | 17907 ft | 238 kts | 337° |
| 2026-04-26 12:13 | 66.55364 | 175.52593 | 17911 ft | 238 kts | 337° |
| 2026-04-26 12:14 | 66.56870 | 175.50761 | 17905 ft | 238 kts | 337° |
| 2026-04-26 12:14 | 66.58347 | 175.48965 | 17908 ft | 238 kts | 337° |
| 2026-04-26 12:14 | 66.59855 | 175.47122 | 17912 ft | 238 kts | 336° |
| 2026-04-26 12:14 | 66.61321 | 175.45244 | 17903 ft | 239 kts | 336° |
| 2026-04-26 12:15 | 66.62794 | 175.43358 | 17909 ft | 238 kts | 336° |
| 2026-04-26 12:15 | 66.64281 | 175.41461 | 17905 ft | 239 kts | 336° |
| 2026-04-26 12:15 | 66.65752 | 175.39595 | 17910 ft | 239 kts | 336° |
| 2026-04-26 12:15 | 66.67235 | 175.37723 | 17912 ft | 238 kts | 336° |
| 2026-04-26 12:16 | 66.68726 | 175.35849 | 17907 ft | 239 kts | 337° |
| 2026-04-26 12:16 | 66.70217 | 175.33983 | 17904 ft | 239 kts | 336° |
| 2026-04-26 12:16 | 66.71699 | 175.32108 | 17906 ft | 239 kts | 335° |
| 2026-04-26 12:16 | 66.73161 | 175.30232 | 17907 ft | 239 kts | 335° |
| 2026-04-26 12:17 | 66.74649 | 175.28297 | 17908 ft | 239 kts | 335° |
| 2026-04-26 12:17 | 66.76113 | 175.26366 | 17911 ft | 239 kts | 335° |
| 2026-04-26 12:17 | 66.77576 | 175.24408 | 17905 ft | 239 kts | 334° |
| 2026-04-26 12:17 | 66.79031 | 175.22433 | 17910 ft | 239 kts | 334° |
| 2026-04-26 12:18 | 66.80495 | 175.20421 | 17912 ft | 239 kts | 334° |
| 2026-04-26 12:18 | 66.81961 | 175.18376 | 17906 ft | 239 kts | 334° |
| 2026-04-26 12:18 | 66.83409 | 175.16330 | 17908 ft | 239 kts | 333° |
| 2026-04-26 12:18 | 66.84863 | 175.14247 | 17912 ft | 239 kts | 333° |
| 2026-04-26 12:19 | 66.86299 | 175.12163 | 17907 ft | 239 kts | 333° |
| 2026-04-26 12:19 | 66.87739 | 175.10045 | 17910 ft | 239 kts | 333° |
| 2026-04-26 12:19 | 66.89173 | 175.07907 | 17911 ft | 239 kts | 333° |
| 2026-04-26 12:19 | 66.90589 | 175.05769 | 17905 ft | 239 kts | 332° |
| 2026-04-26 12:20 | 66.92016 | 175.03586 | 17911 ft | 239 kts | 332° |
| 2026-04-26 12:20 | 66.93447 | 175.01369 | 17911 ft | 239 kts | 332° |
| 2026-04-26 12:20 | 66.94851 | 174.99164 | 17905 ft | 239 kts | 332° |
| 2026-04-26 12:20 | 66.96276 | 174.96898 | 17910 ft | 239 kts | 332° |
| 2026-04-26 12:21 | 66.97662 | 174.94667 | 17911 ft | 239 kts | 332° |
| 2026-04-26 12:21 | 66.99078 | 174.92360 | 17906 ft | 239 kts | 331° |
| 2026-04-26 12:21 | 67.00456 | 174.90083 | 17909 ft | 239 kts | 331° |
| 2026-04-26 12:21 | 67.01862 | 174.87735 | 17910 ft | 239 kts | 330° |
| 2026-04-26 12:22 | 67.03240 | 174.85400 | 17905 ft | 239 kts | 330° |
| 2026-04-26 12:22 | 67.04614 | 174.83046 | 17911 ft | 239 kts | 330° |
| 2026-04-26 12:22 | 67.05984 | 174.80669 | 17909 ft | 239 kts | 330° |
| 2026-04-26 12:22 | 67.07358 | 174.78253 | 17906 ft | 239 kts | 329° |
| 2026-04-26 12:23 | 67.08730 | 174.75810 | 17912 ft | 239 kts | 329° |
| 2026-04-26 12:23 | 67.10078 | 174.73379 | 17908 ft | 239 kts | 329° |
| 2026-04-26 12:23 | 67.11443 | 174.70906 | 17869 ft | 241 kts | 329° |
| 2026-04-26 12:23 | 67.12799 | 174.68472 | 17916 ft | 238 kts | 329° |
| 2026-04-26 12:24 | 67.14168 | 174.66038 | 17926 ft | 238 kts | 329° |
| 2026-04-26 12:24 | 67.15532 | 174.63640 | 17916 ft | 239 kts | 330° |
| 2026-04-26 12:24 | 67.16908 | 174.61246 | 17909 ft | 239 kts | 330° |
| 2026-04-26 12:25 | 67.19679 | 174.56497 | 17911 ft | 239 kts | 331° |
| 2026-04-26 12:25 | 67.21064 | 174.54169 | 17907 ft | 239 kts | 332° |
| 2026-04-26 12:25 | 67.22557 | 174.52391 | 17920 ft | 235 kts | 344° |
| 2026-04-26 12:25 | 67.24096 | 174.51016 | 17894 ft | 235 kts | 347° |
| 2026-04-26 12:26 | 67.25686 | 174.50362 | 17916 ft | 231 kts | 358° |
| 2026-04-26 12:26 | 67.27291 | 174.49977 | 17899 ft | 232 kts | 358° |
| 2026-04-26 12:26 | 67.28897 | 174.49573 | 17908 ft | 232 kts | 358° |
| 2026-04-26 12:26 | 67.30456 | 174.48726 | 17910 ft | 235 kts | 341° |
| 2026-04-26 12:27 | 67.31963 | 174.46970 | 17931 ft | 235 kts | 340° |
| 2026-04-26 12:27 | 67.33450 | 174.45213 | 17912 ft | 236 kts | 340° |
| 2026-04-26 12:27 | 67.34944 | 174.43469 | 17908 ft | 236 kts | 340° |
| 2026-04-26 12:27 | 67.36433 | 174.41744 | 17911 ft | 236 kts | 340° |
| 2026-04-26 12:28 | 67.37927 | 174.40013 | 17907 ft | 236 kts | 340° |
| 2026-04-26 12:28 | 67.39442 | 174.38255 | 17907 ft | 237 kts | 340° |
| 2026-04-26 12:28 | 67.40939 | 174.36513 | 17913 ft | 237 kts | 339° |
| 2026-04-26 12:28 | 67.42390 | 174.34563 | 17910 ft | 238 kts | 333° |
| 2026-04-26 12:29 | 67.43824 | 174.32341 | 17892 ft | 239 kts | 333° |
| 2026-04-26 12:29 | 67.45242 | 174.30113 | 17905 ft | 239 kts | 332° |
| 2026-04-26 12:29 | 67.48071 | 174.25630 | 17908 ft | 239 kts | 332° |
| 2026-04-26 12:30 | 67.49496 | 174.23352 | 17911 ft | 239 kts | 332° |
| 2026-04-26 12:30 | 67.50894 | 174.21104 | 17907 ft | 239 kts | 332° |
| 2026-04-26 12:30 | 67.52304 | 174.18826 | 17906 ft | 239 kts | 332° |
| 2026-04-26 12:31 | 67.55134 | 174.14217 | 17907 ft | 239 kts | 332° |
| 2026-04-26 12:31 | 67.56526 | 174.11929 | 17907 ft | 239 kts | 332° |
| 2026-04-26 12:31 | 67.57941 | 174.09593 | 17910 ft | 239 kts | 332° |
| 2026-04-26 12:31 | 67.59346 | 174.07263 | 17904 ft | 239 kts | 331° |
| 2026-04-26 12:32 | 67.60744 | 174.04933 | 17909 ft | 239 kts | 331° |
| 2026-04-26 12:32 | 67.62132 | 174.02608 | 17911 ft | 239 kts | 331° |
| 2026-04-26 12:32 | 67.64936 | 173.97876 | 17912 ft | 239 kts | 331° |
| 2026-04-26 12:33 | 67.66320 | 173.95523 | 17908 ft | 239 kts | 331° |
| 2026-04-26 12:33 | 67.67722 | 173.93152 | 17909 ft | 239 kts | 332° |
| 2026-04-26 12:33 | 67.69160 | 173.91046 | 17918 ft | 237 kts | 336° |
| 2026-04-26 12:33 | 67.70628 | 173.89041 | 17895 ft | 239 kts | 336° |
| 2026-04-26 12:34 | 67.72089 | 173.87006 | 17906 ft | 238 kts | 336° |
| 2026-04-26 12:34 | 67.73550 | 173.84952 | 17911 ft | 238 kts | 336° |
| 2026-04-26 12:34 | 67.75013 | 173.82889 | 17905 ft | 238 kts | 336° |
| 2026-04-26 12:34 | 67.76465 | 173.80833 | 17911 ft | 238 kts | 336° |
| 2026-04-26 12:35 | 67.77926 | 173.78757 | 17912 ft | 238 kts | 336° |
| 2026-04-26 12:35 | 67.79384 | 173.76678 | 17908 ft | 238 kts | 335° |
| 2026-04-26 12:35 | 67.80823 | 173.74618 | 17909 ft | 238 kts | 335° |
| 2026-04-26 12:35 | 67.82286 | 173.72517 | 17910 ft | 238 kts | 335° |
| 2026-04-26 12:36 | 67.83740 | 173.70422 | 17905 ft | 239 kts | 335° |
| 2026-04-26 12:36 | 67.85189 | 173.68327 | 17912 ft | 238 kts | 335° |
| 2026-04-26 12:36 | 67.86646 | 173.66214 | 17910 ft | 238 kts | 335° |
| 2026-04-26 12:36 | 67.88109 | 173.64084 | 17906 ft | 239 kts | 335° |
| 2026-04-26 12:37 | 67.89551 | 173.61978 | 17911 ft | 239 kts | 335° |
| 2026-04-26 12:37 | 67.91014 | 173.59834 | 17906 ft | 239 kts | 335° |
| 2026-04-26 12:37 | 67.92451 | 173.57722 | 17907 ft | 239 kts | 335° |
| 2026-04-26 12:37 | 67.93916 | 173.55563 | 17912 ft | 239 kts | 335° |
| 2026-04-26 12:38 | 67.95364 | 173.53421 | 17906 ft | 239 kts | 335° |
| 2026-04-26 12:38 | 67.96807 | 173.51282 | 17911 ft | 239 kts | 335° |
| 2026-04-26 12:38 | 67.98247 | 173.49141 | 17910 ft | 239 kts | 335° |
| 2026-04-26 12:38 | 67.99699 | 173.46974 | 17904 ft | 239 kts | 335° |
| 2026-04-26 12:39 | 68.01156 | 173.44795 | 17910 ft | 239 kts | 335° |
| 2026-04-26 12:39 | 68.02602 | 173.42624 | 17909 ft | 239 kts | 335° |
| 2026-04-26 12:39 | 68.04049 | 173.40446 | 17906 ft | 239 kts | 335° |
| 2026-04-26 12:39 | 68.05495 | 173.38264 | 17913 ft | 239 kts | 335° |
| 2026-04-26 12:40 | 68.06937 | 173.36083 | 17909 ft | 239 kts | 335° |
| 2026-04-26 12:40 | 68.08390 | 173.33876 | 17901 ft | 240 kts | 334° |
| 2026-04-26 12:40 | 68.09834 | 173.31654 | 17902 ft | 240 kts | 333° |
| 2026-04-26 12:40 | 68.11269 | 173.29411 | 17862 ft | 242 kts | 333° |
| 2026-04-26 12:41 | 68.12724 | 173.27138 | 17907 ft | 239 kts | 333° |
| 2026-04-26 12:41 | 68.14148 | 173.24918 | 17919 ft | 239 kts | 333° |
| 2026-04-26 12:41 | 68.15582 | 173.22687 | 17910 ft | 240 kts | 333° |
| 2026-04-26 12:41 | 68.17034 | 173.20435 | 17904 ft | 240 kts | 334° |
| 2026-04-26 12:42 | 68.18468 | 173.18216 | 17910 ft | 240 kts | 334° |
| 2026-04-26 12:42 | 68.19927 | 173.15964 | 17908 ft | 240 kts | 334° |
| 2026-04-26 12:42 | 68.21362 | 173.13754 | 17905 ft | 240 kts | 334° |
| 2026-04-26 12:42 | 68.22805 | 173.11536 | 17911 ft | 240 kts | 334° |
| 2026-04-26 12:43 | 68.24255 | 173.09314 | 17909 ft | 240 kts | 334° |
| 2026-04-26 12:43 | 68.25732 | 173.07217 | 17916 ft | 239 kts | 336° |
| 2026-04-26 12:43 | 68.27206 | 173.05209 | 17899 ft | 240 kts | 336° |
| 2026-04-26 12:43 | 68.28695 | 173.03149 | 17910 ft | 239 kts | 336° |
| 2026-04-26 12:44 | 68.30177 | 173.01091 | 17909 ft | 239 kts | 336° |
| 2026-04-26 12:44 | 68.31649 | 172.99051 | 17904 ft | 240 kts | 336° |
| 2026-04-26 12:44 | 68.33147 | 172.96989 | 17910 ft | 240 kts | 336° |
| 2026-04-26 12:44 | 68.34619 | 172.94975 | 17906 ft | 240 kts | 336° |
| 2026-04-26 12:45 | 68.36128 | 172.92923 | 17907 ft | 241 kts | 336° |
| 2026-04-26 12:45 | 68.37605 | 172.90927 | 17910 ft | 241 kts | 336° |
| 2026-04-26 12:45 | 68.39109 | 172.88908 | 17909 ft | 241 kts | 336° |
| 2026-04-26 12:45 | 68.40630 | 172.86881 | 17904 ft | 242 kts | 336° |
| 2026-04-26 12:46 | 68.42138 | 172.84883 | 17911 ft | 242 kts | 336° |
| 2026-04-26 12:46 | 68.43650 | 172.82895 | 17909 ft | 242 kts | 336° |
| 2026-04-26 12:46 | 68.45149 | 172.80939 | 17907 ft | 243 kts | 336° |
| 2026-04-26 12:46 | 68.46671 | 172.78966 | 17914 ft | 243 kts | 336° |
| 2026-04-26 12:47 | 68.48200 | 172.76991 | 17909 ft | 243 kts | 336° |
| 2026-04-26 12:47 | 68.49737 | 172.75009 | 17908 ft | 243 kts | 336° |
| 2026-04-26 12:47 | 68.51244 | 172.73062 | 17913 ft | 243 kts | 336° |
| 2026-04-26 12:47 | 68.52786 | 172.71068 | 17909 ft | 244 kts | 336° |
| 2026-04-26 12:48 | 68.54321 | 172.69078 | 17906 ft | 244 kts | 336° |
| 2026-04-26 12:48 | 68.55839 | 172.67110 | 17913 ft | 244 kts | 336° |
| 2026-04-26 12:48 | 68.57377 | 172.65112 | 17908 ft | 245 kts | 336° |
| 2026-04-26 12:48 | 68.58920 | 172.63109 | 17906 ft | 245 kts | 336° |
| 2026-04-26 12:49 | 68.60461 | 172.61105 | 17913 ft | 245 kts | 336° |
| 2026-04-26 12:49 | 68.61997 | 172.59091 | 17907 ft | 245 kts | 334° |
| 2026-04-26 12:49 | 68.63429 | 172.56639 | 17934 ft | 245 kts | 327° |
| 2026-04-26 12:49 | 68.64829 | 172.53938 | 17905 ft | 247 kts | 327° |
| 2026-04-26 12:50 | 68.66223 | 172.51245 | 17910 ft | 246 kts | 327° |
| 2026-04-26 12:50 | 68.67631 | 172.48532 | 17906 ft | 247 kts | 327° |
| 2026-04-26 12:50 | 68.69039 | 172.45822 | 17911 ft | 247 kts | 327° |
| 2026-04-26 12:50 | 68.70439 | 172.43137 | 17911 ft | 247 kts | 327° |
| 2026-04-26 12:51 | 68.71854 | 172.40427 | 17905 ft | 247 kts | 327° |
| 2026-04-26 12:51 | 68.73254 | 172.37752 | 17910 ft | 247 kts | 327° |
| 2026-04-26 12:51 | 68.74671 | 172.35049 | 17910 ft | 247 kts | 327° |
| 2026-04-26 12:51 | 68.76091 | 172.32342 | 17899 ft | 248 kts | 326° |
| 2026-04-26 12:52 | 68.77490 | 172.29645 | 17907 ft | 247 kts | 326° |
| 2026-04-26 12:52 | 68.78896 | 172.26904 | 17911 ft | 247 kts | 326° |
| 2026-04-26 12:52 | 68.80299 | 172.24142 | 17905 ft | 247 kts | 326° |
| 2026-04-26 12:52 | 68.81681 | 172.21393 | 17910 ft | 247 kts | 326° |
| 2026-04-26 12:53 | 68.83068 | 172.18600 | 17912 ft | 247 kts | 325° |
| 2026-04-26 12:53 | 68.84453 | 172.15782 | 17907 ft | 248 kts | 325° |
| 2026-04-26 12:53 | 68.85845 | 172.12920 | 17911 ft | 248 kts | 324° |
| 2026-04-26 12:53 | 68.87218 | 172.10066 | 17909 ft | 248 kts | 324° |
| 2026-04-26 12:54 | 68.88577 | 172.07211 | 17904 ft | 248 kts | 324° |
| 2026-04-26 12:54 | 68.89952 | 172.04288 | 17911 ft | 248 kts | 324° |
| 2026-04-26 12:54 | 68.91318 | 172.01353 | 17910 ft | 248 kts | 323° |
| 2026-04-26 12:54 | 68.92662 | 171.98436 | 17906 ft | 248 kts | 323° |
| 2026-04-26 12:55 | 68.94013 | 171.95471 | 17911 ft | 248 kts | 323° |
| 2026-04-26 12:55 | 68.95359 | 171.92485 | 17907 ft | 248 kts | 323° |
| 2026-04-26 12:55 | 68.96712 | 171.89452 | 17907 ft | 248 kts | 322° |
| 2026-04-26 12:55 | 68.98045 | 171.86427 | 17913 ft | 248 kts | 322° |
| 2026-04-26 12:56 | 68.99389 | 171.83348 | 17908 ft | 249 kts | 322° |
| 2026-04-26 12:56 | 69.00710 | 171.80287 | 17910 ft | 249 kts | 322° |
| 2026-04-26 12:56 | 69.02025 | 171.77208 | 17911 ft | 249 kts | 321° |
| 2026-04-26 12:56 | 69.03338 | 171.74098 | 17908 ft | 249 kts | 321° |
| 2026-04-26 12:57 | 69.04658 | 171.70937 | 17905 ft | 249 kts | 321° |
| 2026-04-26 12:57 | 69.05959 | 171.67789 | 17912 ft | 249 kts | 321° |
| 2026-04-26 12:57 | 69.07265 | 171.64592 | 17907 ft | 249 kts | 320° |
| 2026-04-26 12:58 | 69.09843 | 171.58173 | 17913 ft | 249 kts | 320° |
| 2026-04-26 12:58 | 69.11150 | 171.54884 | 17862 ft | 251 kts | 320° |
| 2026-04-26 12:58 | 69.12440 | 171.51677 | 17903 ft | 249 kts | 321° |
| 2026-04-26 12:58 | 69.13747 | 171.48473 | 17917 ft | 249 kts | 321° |
| 2026-04-26 12:59 | 69.15052 | 171.45319 | 17911 ft | 249 kts | 321° |
| 2026-04-26 12:59 | 69.16372 | 171.42178 | 17907 ft | 249 kts | 322° |
| 2026-04-26 12:59 | 69.17709 | 171.39041 | 17908 ft | 249 kts | 322° |
| 2026-04-26 12:59 | 69.19032 | 171.35983 | 17911 ft | 249 kts | 323° |
| 2026-04-26 13:00 | 69.20377 | 171.32916 | 17895 ft | 250 kts | 322° |
| 2026-04-26 13:00 | 69.21732 | 171.29845 | 17906 ft | 249 kts | 322° |
| 2026-04-26 13:00 | 69.23088 | 171.26782 | 17907 ft | 249 kts | 322° |
| 2026-04-26 13:00 | 69.24438 | 171.23738 | 17908 ft | 249 kts | 323° |
| 2026-04-26 13:01 | 69.25792 | 171.20702 | 17913 ft | 249 kts | 323° |
| 2026-04-26 13:01 | 69.27138 | 171.17690 | 17906 ft | 249 kts | 323° |
| 2026-04-26 13:01 | 69.28510 | 171.14629 | 17907 ft | 249 kts | 323° |
| 2026-04-26 13:01 | 69.29866 | 171.11614 | 17911 ft | 249 kts | 323° |
| 2026-04-26 13:02 | 69.31215 | 171.08624 | 17901 ft | 250 kts | 323° |
| 2026-04-26 13:02 | 69.32587 | 171.05595 | 17908 ft | 250 kts | 323° |
| 2026-04-26 13:02 | 69.33955 | 171.02583 | 17908 ft | 250 kts | 323° |
| 2026-04-26 13:02 | 69.35342 | 170.99536 | 17904 ft | 251 kts | 322° |
| 2026-04-26 13:03 | 69.36714 | 170.96532 | 17911 ft | 251 kts | 322° |
| 2026-04-26 13:03 | 69.38094 | 170.93520 | 17912 ft | 251 kts | 321° |
| 2026-04-26 13:03 | 69.39474 | 170.90514 | 17911 ft | 252 kts | 321° |
| 2026-04-26 13:03 | 69.40859 | 170.87506 | 17913 ft | 252 kts | 321° |
| 2026-04-26 13:04 | 69.42260 | 170.84474 | 17911 ft | 252 kts | 321° |
| 2026-04-26 13:04 | 69.43652 | 170.81474 | 17905 ft | 252 kts | 321° |
| 2026-04-26 13:04 | 69.45048 | 170.78474 | 17909 ft | 252 kts | 321° |
| 2026-04-26 13:04 | 69.46451 | 170.75472 | 17912 ft | 252 kts | 321° |
| 2026-04-26 13:05 | 69.47832 | 170.72523 | 17906 ft | 252 kts | 321° |
| 2026-04-26 13:05 | 69.49252 | 170.69505 | 17911 ft | 252 kts | 321° |
| 2026-04-26 13:05 | 69.50657 | 170.66530 | 17909 ft | 252 kts | 322° |
| 2026-04-26 13:05 | 69.52052 | 170.63585 | 17904 ft | 252 kts | 322° |
| 2026-04-26 13:06 | 69.53465 | 170.60609 | 17911 ft | 252 kts | 322° |
| 2026-04-26 13:06 | 69.54879 | 170.57645 | 17910 ft | 252 kts | 322° |
| 2026-04-26 13:06 | 69.56293 | 170.54691 | 17907 ft | 252 kts | 322° |
| 2026-04-26 13:06 | 69.57709 | 170.51744 | 17913 ft | 252 kts | 322° |
| 2026-04-26 13:07 | 69.59128 | 170.48798 | 17907 ft | 252 kts | 322° |
| 2026-04-26 13:07 | 69.60548 | 170.45862 | 17906 ft | 253 kts | 322° |
| 2026-04-26 13:07 | 69.61969 | 170.42931 | 17912 ft | 252 kts | 323° |
| 2026-04-26 13:07 | 69.63383 | 170.40025 | 17907 ft | 253 kts | 323° |
| 2026-04-26 13:08 | 69.64812 | 170.37099 | 17910 ft | 253 kts | 323° |
| 2026-04-26 13:08 | 69.66240 | 170.34183 | 17909 ft | 253 kts | 322° |
| 2026-04-26 13:08 | 69.67684 | 170.31226 | 17909 ft | 253 kts | 322° |
| 2026-04-26 13:08 | 69.69106 | 170.28290 | 17908 ft | 253 kts | 321° |
| 2026-04-26 13:09 | 69.70242 | 170.24721 | 17868 ft | 234 kts | 292° |
| 2026-04-26 13:09 | 69.70539 | 170.20372 | 17676 ft | 215 kts | 258° |
| 2026-04-26 13:09 | 69.69940 | 170.16682 | 17380 ft | 202 kts | 221° |
| 2026-04-26 13:09 | 69.68735 | 170.14964 | 17038 ft | 196 kts | 184° |
| 2026-04-26 13:10 | 69.67439 | 170.15861 | 16671 ft | 197 kts | 146° |
| 2026-04-26 13:10 | 69.66627 | 170.18994 | 16296 ft | 201 kts | 107° |
| 2026-04-26 13:10 | 69.66676 | 170.22974 | 15922 ft | 206 kts | 68° |
| 2026-04-26 13:10 | 69.67576 | 170.26079 | 15546 ft | 207 kts | 28° |
| 2026-04-26 13:11 | 69.68954 | 170.26945 | 15160 ft | 205 kts | 348° |
| 2026-04-26 13:11 | 69.70184 | 170.25189 | 14766 ft | 198 kts | 307° |
| 2026-04-26 13:11 | 69.70709 | 170.21722 | 14367 ft | 189 kts | 266° |
| 2026-04-26 13:11 | 69.70319 | 170.18320 | 13970 ft | 182 kts | 225° |
| 2026-04-26 13:12 | 69.69729 | 170.17023 | 13732 ft | 180 kts | 200° |
| 2026-04-26 13:12 | 69.68533 | 170.16847 | 13351 ft | 182 kts | 161° |
| 2026-04-26 13:12 | 69.67563 | 170.19174 | 12973 ft | 188 kts | 119° |
| 2026-04-26 13:12 | 69.67371 | 170.22908 | 12607 ft | 195 kts | 78° |
| 2026-04-26 13:13 | 69.68070 | 170.26172 | 12253 ft | 199 kts | 37° |
| 2026-04-26 13:13 | 69.69359 | 170.27444 | 11895 ft | 198 kts | 354° |
| 2026-04-26 13:13 | 69.70604 | 170.26160 | 11561 ft | 192 kts | 318° |
| 2026-04-26 13:13 | 69.71380 | 170.23183 | 11237 ft | 185 kts | 284° |
| 2026-04-26 13:14 | 69.71452 | 170.19604 | 10899 ft | 178 kts | 250° |
| 2026-04-26 13:14 | 69.70825 | 170.16670 | 10558 ft | 173 kts | 216° |
| 2026-04-26 13:14 | 69.69721 | 170.15378 | 10207 ft | 170 kts | 180° |
| 2026-04-26 13:14 | 69.68602 | 170.16223 | 9875 ft | 170 kts | 146° |
| 2026-04-26 13:15 | 69.67866 | 170.18817 | 9556 ft | 173 kts | 112° |
| 2026-04-26 13:15 | 69.67781 | 170.22252 | 9249 ft | 177 kts | 78° |
| 2026-04-26 13:15 | 69.68406 | 170.25308 | 8946 ft | 182 kts | 43° |
| 2026-04-26 13:15 | 69.69125 | 170.26570 | 8746 ft | 184 kts | 20° |
| 2026-04-26 13:16 | 69.70787 | 170.26396 | 8346 ft | 186 kts | 334° |
| 2026-04-26 13:16 | 69.71744 | 170.24011 | 8020 ft | 186 kts | 299° |
| 2026-04-26 13:16 | 69.72088 | 170.20500 | 7679 ft | 183 kts | 264° |
| 2026-04-26 13:16 | 69.71701 | 170.17110 | 7342 ft | 178 kts | 229° |
| 2026-04-26 13:17 | 69.69569 | 170.14880 | 6670 ft | 170 kts | 167° |
| 2026-04-26 13:17 | 69.68408 | 170.15608 | 6387 ft | 170 kts | 165° |
| 2026-04-26 13:18 | 69.66247 | 170.17015 | 6072 ft | 149 kts | 164° |
| 2026-04-26 13:18 | 69.65260 | 170.17699 | 5726 ft | 144 kts | 157° |
| 2026-04-26 13:18 | 69.64019 | 170.21806 | 5029 ft | 148 kts | 100° |
| 2026-04-26 13:19 | 69.64092 | 170.24756 | 4785 ft | 152 kts | 73° |
| 2026-04-26 13:19 | 69.64458 | 170.27612 | 4589 ft | 153 kts | 71° |
| 2026-04-26 13:19 | 69.64786 | 170.30510 | 4405 ft | 151 kts | 76° |
| 2026-04-26 13:19 | 69.65044 | 170.33449 | 4319 ft | 150 kts | 76° |
| 2026-04-26 13:20 | 69.65302 | 170.36250 | 4364 ft | 140 kts | 76° |
| 2026-04-26 13:20 | 69.65552 | 170.38890 | 4384 ft | 132 kts | 76° |
| 2026-04-26 13:20 | 69.65793 | 170.41373 | 4380 ft | 127 kts | 76° |
| 2026-04-26 13:20 | 69.66023 | 170.43701 | 4164 ft | 119 kts | 75° |
| 2026-04-26 13:21 | 69.66251 | 170.45978 | 3840 ft | 117 kts | 75° |
| 2026-04-26 13:21 | 69.66399 | 170.47459 | 3566 ft | 121 kts | 75° |
| 2026-04-26 13:21 | 69.66731 | 170.50690 | 3120 ft | 131 kts | 73° |
| 2026-04-26 13:21 | 69.66997 | 170.53233 | 2830 ft | 135 kts | 73° |
| 2026-04-26 13:22 | 69.67275 | 170.55870 | 2436 ft | 141 kts | 73° |
| 2026-04-26 13:22 | 69.67563 | 170.58601 | 1996 ft | 143 kts | 72° |
| 2026-04-26 13:22 | 69.67847 | 170.61287 | 1699 ft | 135 kts | 72° |
| 2026-04-26 13:22 | 69.68127 | 170.63861 | 1670 ft | 130 kts | 71° |
| 2026-04-26 13:23 | 69.68390 | 170.66219 | 1704 ft | 120 kts | 71° |
| 2026-04-26 13:23 | 69.68641 | 170.68431 | 1706 ft | 112 kts | 71° |
| 2026-04-26 13:23 | 69.68876 | 170.70487 | 1707 ft | 105 kts | 71° |
| 2026-04-26 13:23 | 69.69105 | 170.72488 | 1760 ft | 105 kts | 71° |
| 2026-04-26 13:24 | 69.69342 | 170.74512 | 1814 ft | 107 kts | 71° |
| 2026-04-26 13:24 | 69.69591 | 170.76588 | 1817 ft | 114 kts | 70° |
| 2026-04-26 13:24 | 69.69865 | 170.78825 | 1805 ft | 122 kts | 70° |
| 2026-04-26 13:24 | 69.70347 | 170.80902 | 1806 ft | 123 kts | 58° |
| 2026-04-26 13:25 | 69.70384 | 170.83093 | 1856 ft | 114 kts | 114° |
| 2026-04-26 13:25 | 69.69712 | 170.84222 | 1748 ft | 121 kts | 175° |
| 2026-04-26 13:25 | 69.68998 | 170.83041 | 1690 ft | 123 kts | 239° |
| 2026-04-26 13:25 | 69.68936 | 170.80783 | 1725 ft | 110 kts | 281° |
| 2026-04-26 13:26 | 69.68784 | 170.78670 | 1741 ft | 106 kts | 249° |
| 2026-04-26 13:26 | 69.68601 | 170.76599 | 1698 ft | 108 kts | 266° |
| 2026-04-26 13:26 | 69.68706 | 170.74513 | 1664 ft | 104 kts | 302° |
| 2026-04-26 13:26 | 69.69095 | 170.72749 | 1637 ft | 104 kts | 307° |
| 2026-04-26 13:27 | 69.69440 | 170.70859 | 1575 ft | 108 kts | 304° |
| 2026-04-26 13:27 | 69.69913 | 170.69253 | 1569 ft | 105 kts | 322° |
| 2026-04-26 13:27 | 69.70452 | 170.67715 | 1488 ft | 112 kts | 314° |
| 2026-04-26 13:27 | 69.70904 | 170.65878 | 1403 ft | 112 kts | 318° |
| 2026-04-26 13:28 | 69.71499 | 170.64502 | 1300 ft | 111 kts | 329° |
| 2026-04-26 13:28 | 69.72162 | 170.63310 | 1150 ft | 112 kts | 336° |
| 2026-04-26 13:28 | 69.72862 | 170.62303 | 993 ft | 112 kts | 342° |
| 2026-04-26 13:28 | 69.73601 | 170.61681 | 819 ft | 112 kts | 354° |
| 2026-04-26 13:29 | 69.74393 | 170.61452 | 609 ft | 114 kts | 2° |
| 2026-04-26 13:29 | 69.74916 | 170.61392 | 522 ft | 113 kts | 358° |
| 2026-04-26 13:29 | 69.75953 | 170.61034 | 272 ft | 114 kts | 354° |
| 2026-04-26 13:29 | 69.76726 | 170.60645 | 130 ft | 110 kts | 352° |
| 2026-04-26 13:30 | 69.77450 | 170.60231 | 20 ft | 101 kts | 353° |
| 2026-04-26 13:30 | 69.78040 | 170.59871 | 10 ft | 71 kts | 348° |
| 2026-04-26 13:30 | 69.78404 | 170.59624 | 10 ft | 36 kts | 347° |
| 2026-04-26 13:30 | 69.78575 | 170.59506 | 10 ft | 16 kts | 350° |
| 2026-04-26 13:31 | 69.78641 | 170.59482 | 10 ft | 3 kts | 329° |
| 2026-04-26 13:31 | 69.78617 | 170.59445 | 10 ft | 11 kts | 167° |
| 2026-04-26 13:31 | 69.78504 | 170.59549 | 10 ft | 20 kts | 168° |
| 2026-04-26 13:31 | 69.78340 | 170.59662 | 10 ft | 26 kts | 167° |
| 2026-04-26 13:32 | 69.78141 | 170.59808 | 10 ft | 32 kts | 160° |
| 2026-04-26 13:32 | 69.77949 | 170.59859 | 10 ft | 24 kts | 261° |
| 2026-04-26 13:32 | 69.78018 | 170.59593 | 7 ft | 1 kts | 354° |